createdAt,value
2023-11-28T00:02:08.272Z,2.85
2023-11-28T00:12:11.817Z,3.42
2023-11-28T00:22:13.827Z,3.45
2023-11-28T00:32:17.234Z,2.97
2023-11-28T00:42:19.236Z,3.15
2023-11-28T00:52:22.700Z,3.08
2023-11-28T01:02:24.884Z,3.58
2023-11-28T01:12:28.309Z,2.47
2023-11-28T01:22:30.399Z,2.38
2023-11-28T01:32:33.846Z,2.00
2023-11-28T01:42:35.961Z,2.45
2023-11-28T01:52:39.541Z,2.75
2023-11-28T02:02:42.512Z,3.50
2023-11-28T02:12:46.123Z,6.03
2023-11-28T02:22:48.198Z,3.20
2023-11-28T02:32:51.782Z,2.70
2023-11-28T02:42:53.834Z,2.50
2023-11-28T02:52:57.306Z,2.15
2023-11-28T03:02:59.520Z,3.25
2023-11-28T03:13:03.039Z,3.00
2023-11-28T03:23:05.072Z,3.10
2023-11-28T03:33:08.578Z,2.60
2023-11-28T03:43:10.956Z,3.30
2023-11-28T03:53:14.391Z,2.60
2023-11-28T04:03:16.412Z,2.92
2023-11-28T04:13:19.927Z,2.10
2023-11-28T04:23:22.007Z,2.70
2023-11-28T04:33:25.385Z,2.83
2023-11-28T04:43:27.343Z,2.88
2023-11-28T04:53:30.746Z,2.70
2023-11-28T05:03:33.039Z,3.00
2023-11-28T05:13:36.617Z,3.25
2023-11-28T05:23:38.614Z,3.95
2023-11-28T05:33:42.055Z,2.88
2023-11-28T05:43:44.042Z,2.10
2023-11-28T05:53:47.454Z,2.35
2023-11-28T06:03:49.637Z,2.65
2023-11-28T06:13:53.121Z,2.03
2023-11-28T06:23:55.116Z,2.42
2023-11-28T06:33:58.426Z,2.55
2023-11-28T06:44:03.652Z,2.00
2023-11-28T06:54:07.611Z,2.45
2023-11-28T07:04:09.588Z,3.20
2023-11-28T07:14:13.106Z,3.38
2023-11-28T07:24:15.372Z,3.05
2023-11-28T07:34:18.809Z,3.25
2023-11-28T07:44:21.120Z,3.60
2023-11-28T07:54:24.554Z,5.28
2023-11-28T08:04:29.216Z,3.35
2023-11-28T08:14:32.732Z,3.75
2023-11-28T08:24:34.784Z,4.65
2023-11-28T08:34:38.521Z,5.63
2023-11-28T08:44:40.706Z,3.58
2023-11-28T08:54:44.500Z,2.53
2023-11-28T09:04:48.903Z,2.53
2023-11-28T09:14:56.359Z,3.92
2023-11-28T09:24:59.003Z,2.58
2023-11-28T09:35:08.380Z,2.67
2023-11-28T09:45:13.146Z,3.58
2023-11-28T09:55:17.208Z,3.92
2023-11-28T10:05:20.114Z,2.85
2023-11-28T10:15:23.654Z,2.65
2023-11-28T10:25:27.234Z,2.45
2023-11-28T10:35:44.139Z,2.53
2023-11-28T10:45:47.232Z,2.70
2023-11-28T10:55:53.343Z,3.25
2023-11-28T11:05:56.035Z,2.78
2023-11-28T11:16:12.339Z,2.63
2023-11-28T11:26:14.476Z,2.67
2023-11-28T11:36:18.822Z,2.35
2023-11-28T11:46:21.147Z,2.58
2023-11-28T11:56:24.558Z,2.38
2023-11-28T12:06:26.616Z,3.03
2023-11-28T12:16:33.680Z,2.72
2023-11-28T12:26:37.146Z,2.25
2023-11-28T12:36:47.775Z,1.50
2023-11-28T12:46:50.217Z,2.83
2023-11-28T12:56:53.999Z,1.50
2023-11-28T13:07:05.893Z,2.95
2023-11-28T13:17:17.556Z,2.43
2023-11-28T13:27:19.582Z,1.70
2023-11-28T13:37:23.015Z,2.47
2023-11-28T13:47:25.011Z,2.30
2023-11-28T13:57:28.434Z,2.03
2023-11-28T14:07:30.434Z,1.42
2023-11-28T14:17:35.161Z,2.30
2023-11-28T14:27:40.443Z,1.80
2023-11-28T14:37:43.967Z,2.70
2023-11-28T14:47:46.687Z,1.70
2023-11-28T14:57:51.354Z,1.95
2023-11-28T15:07:53.399Z,3.30
2023-11-28T15:17:57.130Z,2.53
2023-11-28T15:27:59.255Z,1.95
2023-11-28T15:38:03.057Z,2.42
2023-11-28T15:48:05.408Z,2.38
2023-11-28T15:58:08.871Z,2.63
2023-11-28T16:08:10.971Z,2.90
2023-11-28T16:18:14.716Z,2.40
2023-11-28T16:28:16.747Z,2.10
2023-11-28T16:38:20.169Z,2.60
2023-11-28T16:48:22.289Z,3.55
2023-11-28T16:58:25.721Z,3.35
2023-11-28T17:08:29.286Z,5.70
2023-11-28T17:18:32.948Z,6.47
2023-11-28T17:28:35.026Z,4.10
2023-11-28T17:38:43.663Z,4.55
2023-11-28T17:48:45.804Z,4.50
2023-11-28T17:58:49.136Z,5.90
2023-11-28T18:08:51.226Z,5.13
2023-11-28T18:18:56.640Z,5.85
2023-11-28T18:28:59.676Z,4.97
2023-11-28T18:39:04.830Z,7.07
2023-11-28T18:49:07.287Z,5.65
2023-11-28T18:59:13.581Z,11.27
2023-11-28T19:09:19.297Z,20.02
2023-11-28T19:19:25.538Z,16.95
2023-11-28T19:29:27.812Z,12.18
2023-11-28T19:39:33.270Z,6.35
2023-11-28T19:49:38.208Z,4.22
2023-11-28T19:59:46.911Z,4.55
2023-11-28T20:09:49.331Z,4.57
2023-11-28T20:19:56.550Z,4.75
2023-11-28T20:29:59.051Z,4.38
2023-11-28T20:40:19.805Z,4.05
2023-11-28T21:00:45.540Z,3.90
2023-11-28T21:10:51.953Z,4.25
2023-11-28T21:20:58.140Z,4.30
2023-11-28T21:31:02.126Z,4.43
2023-11-28T21:41:06.067Z,6.35
2023-11-28T21:51:11.498Z,4.85
2023-11-28T22:01:14.948Z,5.72
2023-11-28T22:11:19.905Z,6.30
2023-11-28T22:21:27.225Z,6.20
2023-11-28T22:31:29.498Z,6.68
2023-11-28T22:41:35.909Z,5.55
2023-11-28T22:51:41.010Z,5.07
2023-11-28T23:01:46.379Z,4.97
2023-11-28T23:11:48.449Z,4.55
2023-11-28T23:21:54.958Z,3.92
2023-11-28T23:31:59.673Z,3.80
2023-11-28T23:42:08.839Z,4.20
2023-11-28T23:52:10.815Z,3.13
